sensor_id;sensor_type;location;lat;lon;timestamp;temperature;humidity
33943;DHT22;66763;47.856;17.462;2023-05-07T00:01:31;16.90;48.30
33943;DHT22;66763;47.856;17.462;2023-05-07T00:03:57;16.90;48.30
33943;DHT22;66763;47.856;17.462;2023-05-07T00:06:22;16.90;48.30
33943;DHT22;66763;47.856;17.462;2023-05-07T00:08:48;16.90;48.40
33943;DHT22;66763;47.856;17.462;2023-05-07T00:11:14;16.90;48.30
33943;DHT22;66763;47.856;17.462;2023-05-07T00:13:40;16.90;48.90
33943;DHT22;66763;47.856;17.462;2023-05-07T00:16:06;16.90;48.30
33943;DHT22;66763;47.856;17.462;2023-05-07T00:18:32;16.90;48.30
33943;DHT22;66763;47.856;17.462;2023-05-07T00:20:57;16.90;48.30
33943;DHT22;66763;47.856;17.462;2023-05-07T00:23:23;16.90;48.30
33943;DHT22;66763;47.856;17.462;2023-05-07T00:25:48;16.90;48.30
33943;DHT22;66763;47.856;17.462;2023-05-07T00:28:13;16.90;48.30
33943;DHT22;66763;47.856;17.462;2023-05-07T00:30:39;16.90;48.30
33943;DHT22;66763;47.856;17.462;2023-05-07T00:33:05;16.90;48.30
33943;DHT22;66763;47.856;17.462;2023-05-07T00:35:30;16.90;48.30
33943;DHT22;66763;47.856;17.462;2023-05-07T00:37:56;16.90;48.30
33943;DHT22;66763;47.856;17.462;2023-05-07T00:40:21;16.90;48.30
33943;DHT22;66763;47.856;17.462;2023-05-07T00:42:47;16.90;48.30
33943;DHT22;66763;47.856;17.462;2023-05-07T00:45:14;16.90;48.30
33943;DHT22;66763;47.856;17.462;2023-05-07T00:47:40;16.90;48.30
33943;DHT22;66763;47.856;17.462;2023-05-07T00:50:06;16.90;48.30
33943;DHT22;66763;47.856;17.462;2023-05-07T00:52:32;16.90;48.30
33943;DHT22;66763;47.856;17.462;2023-05-07T00:54:58;16.90;48.30
33943;DHT22;66763;47.856;17.462;2023-05-07T00:57:24;16.90;48.30
33943;DHT22;66763;47.856;17.462;2023-05-07T00:59:51;16.90;48.30
33943;DHT22;66763;47.856;17.462;2023-05-07T01:02:16;16.90;48.30
33943;DHT22;66763;47.856;17.462;2023-05-07T01:04:42;16.90;48.30
33943;DHT22;66763;47.856;17.462;2023-05-07T01:07:07;16.90;48.30
33943;DHT22;66763;47.856;17.462;2023-05-07T01:09:33;16.90;48.40
33943;DHT22;66763;47.856;17.462;2023-05-07T01:12:00;16.90;48.30
33943;DHT22;66763;47.856;17.462;2023-05-07T01:14:26;16.90;48.40
33943;DHT22;66763;47.856;17.462;2023-05-07T01:16:52;16.90;48.40
33943;DHT22;66763;47.856;17.462;2023-05-07T01:19:18;16.90;48.40
33943;DHT22;66763;47.856;17.462;2023-05-07T01:21:48;16.90;48.40
33943;DHT22;66763;47.856;17.462;2023-05-07T01:24:14;16.90;48.40
33943;DHT22;66763;47.856;17.462;2023-05-07T01:26:40;16.90;48.40
33943;DHT22;66763;47.856;17.462;2023-05-07T01:29:05;16.90;48.40
33943;DHT22;66763;47.856;17.462;2023-05-07T01:31:31;16.90;48.40
33943;DHT22;66763;47.856;17.462;2023-05-07T01:33:57;16.90;48.50
33943;DHT22;66763;47.856;17.462;2023-05-07T01:36:24;16.90;48.50
33943;DHT22;66763;47.856;17.462;2023-05-07T01:38:52;16.90;48.50
33943;DHT22;66763;47.856;17.462;2023-05-07T01:41:18;16.90;48.40
33943;DHT22;66763;47.856;17.462;2023-05-07T01:43:45;16.90;48.50
33943;DHT22;66763;47.856;17.462;2023-05-07T01:46:11;16.90;48.50
33943;DHT22;66763;47.856;17.462;2023-05-07T01:48:37;16.90;48.50
33943;DHT22;66763;47.856;17.462;2023-05-07T01:51:03;16.90;48.50
33943;DHT22;66763;47.856;17.462;2023-05-07T01:53:34;16.90;48.60
33943;DHT22;66763;47.856;17.462;2023-05-07T01:56:00;16.90;48.60
33943;DHT22;66763;47.856;17.462;2023-05-07T01:58:25;16.90;48.50
33943;DHT22;66763;47.856;17.462;2023-05-07T02:00:51;16.90;48.50
33943;DHT22;66763;47.856;17.462;2023-05-07T02:03:17;16.90;48.50
33943;DHT22;66763;47.856;17.462;2023-05-07T02:05:42;16.90;48.50
33943;DHT22;66763;47.856;17.462;2023-05-07T02:08:08;16.90;48.50
33943;DHT22;66763;47.856;17.462;2023-05-07T02:10:33;16.80;48.50
33943;DHT22;66763;47.856;17.462;2023-05-07T02:12:58;16.90;48.50
33943;DHT22;66763;47.856;17.462;2023-05-07T02:15:26;16.90;48.50
33943;DHT22;66763;47.856;17.462;2023-05-07T02:18:26;16.90;48.50
33943;DHT22;66763;47.856;17.462;2023-05-07T02:20:44;16.90;48.50
33943;DHT22;66763;47.856;17.462;2023-05-07T02:23:10;16.90;48.50
33943;DHT22;66763;47.856;17.462;2023-05-07T02:25:35;16.90;48.60
33943;DHT22;66763;47.856;17.462;2023-05-07T02:28:00;16.90;48.60
33943;DHT22;66763;47.856;17.462;2023-05-07T02:30:26;16.90;48.50
33943;DHT22;66763;47.856;17.462;2023-05-07T02:32:52;16.90;48.60
33943;DHT22;66763;47.856;17.462;2023-05-07T02:35:17;16.90;48.60
33943;DHT22;66763;47.856;17.462;2023-05-07T02:37:43;16.90;48.50
33943;DHT22;66763;47.856;17.462;2023-05-07T02:40:08;16.90;48.60
33943;DHT22;66763;47.856;17.462;2023-05-07T02:42:34;16.90;48.60
33943;DHT22;66763;47.856;17.462;2023-05-07T02:44:59;16.90;48.60
33943;DHT22;66763;47.856;17.462;2023-05-07T02:47:25;16.90;48.60
33943;DHT22;66763;47.856;17.462;2023-05-07T02:49:53;16.90;48.60
33943;DHT22;66763;47.856;17.462;2023-05-07T02:52:19;16.90;48.60
33943;DHT22;66763;47.856;17.462;2023-05-07T02:54:44;16.90;48.60
33943;DHT22;66763;47.856;17.462;2023-05-07T02:57:09;16.90;48.60
33943;DHT22;66763;47.856;17.462;2023-05-07T02:59:35;16.90;48.50
33943;DHT22;66763;47.856;17.462;2023-05-07T03:02:00;16.90;48.60
33943;DHT22;66763;47.856;17.462;2023-05-07T03:04:26;16.90;48.50
33943;DHT22;66763;47.856;17.462;2023-05-07T03:06:51;16.90;48.60
33943;DHT22;66763;47.856;17.462;2023-05-07T03:09:17;16.90;48.60
33943;DHT22;66763;47.856;17.462;2023-05-07T03:11:42;16.90;48.60
33943;DHT22;66763;47.856;17.462;2023-05-07T03:14:08;16.90;48.60
33943;DHT22;66763;47.856;17.462;2023-05-07T03:16:33;16.90;48.60
33943;DHT22;66763;47.856;17.462;2023-05-07T03:18:59;16.90;48.60
33943;DHT22;66763;47.856;17.462;2023-05-07T03:21:24;16.90;48.60
33943;DHT22;66763;47.856;17.462;2023-05-07T03:23:51;16.90;48.60
33943;DHT22;66763;47.856;17.462;2023-05-07T03:26:17;16.90;48.60
33943;DHT22;66763;47.856;17.462;2023-05-07T03:28:42;16.90;49.20
33943;DHT22;66763;47.856;17.462;2023-05-07T03:31:08;16.90;48.60
33943;DHT22;66763;47.856;17.462;2023-05-07T03:33:33;16.90;48.60
33943;DHT22;66763;47.856;17.462;2023-05-07T03:35:59;16.90;48.60
33943;DHT22;66763;47.856;17.462;2023-05-07T03:38:24;16.90;48.60
33943;DHT22;66763;47.856;17.462;2023-05-07T03:40:50;16.90;48.60
33943;DHT22;66763;47.856;17.462;2023-05-07T03:43:15;16.90;48.60
33943;DHT22;66763;47.856;17.462;2023-05-07T03:45:41;16.90;48.60
33943;DHT22;66763;47.856;17.462;2023-05-07T03:48:07;16.90;48.60
33943;DHT22;66763;47.856;17.462;2023-05-07T03:50:32;16.90;48.60
33943;DHT22;66763;47.856;17.462;2023-05-07T03:52:58;16.90;48.60
33943;DHT22;66763;47.856;17.462;2023-05-07T03:55:23;16.90;48.60
33943;DHT22;66763;47.856;17.462;2023-05-07T03:57:49;16.90;48.60
33943;DHT22;66763;47.856;17.462;2023-05-07T04:00:14;16.90;49.20
33943;DHT22;66763;47.856;17.462;2023-05-07T04:02:40;16.90;48.60
33943;DHT22;66763;47.856;17.462;2023-05-07T04:05:06;16.90;48.60
33943;DHT22;66763;47.856;17.462;2023-05-07T04:07:31;16.90;49.20
33943;DHT22;66763;47.856;17.462;2023-05-07T04:09:57;16.90;48.60
33943;DHT22;66763;47.856;17.462;2023-05-07T04:12:22;16.90;48.60
33943;DHT22;66763;47.856;17.462;2023-05-07T04:14:48;16.90;48.60
33943;DHT22;66763;47.856;17.462;2023-05-07T04:17:13;16.80;48.60
33943;DHT22;66763;47.856;17.462;2023-05-07T04:19:38;16.90;48.60
33943;DHT22;66763;47.856;17.462;2023-05-07T04:22:04;16.80;48.60
33943;DHT22;66763;47.856;17.462;2023-05-07T04:24:33;16.80;48.50
33943;DHT22;66763;47.856;17.462;2023-05-07T04:26:58;16.90;48.60
33943;DHT22;66763;47.856;17.462;2023-05-07T04:29:24;16.90;48.50
33943;DHT22;66763;47.856;17.462;2023-05-07T04:31:49;16.90;48.50
33943;DHT22;66763;47.856;17.462;2023-05-07T04:34:15;16.90;48.50
33943;DHT22;66763;47.856;17.462;2023-05-07T04:36:41;16.90;49.10
33943;DHT22;66763;47.856;17.462;2023-05-07T04:39:07;16.90;48.50
33943;DHT22;66763;47.856;17.462;2023-05-07T04:41:33;16.90;48.60
33943;DHT22;66763;47.856;17.462;2023-05-07T04:44:01;16.90;49.10
33943;DHT22;66763;47.856;17.462;2023-05-07T04:46:29;16.90;48.50
33943;DHT22;66763;47.856;17.462;2023-05-07T04:48:55;16.90;48.50
33943;DHT22;66763;47.856;17.462;2023-05-07T04:51:20;16.90;48.50
33943;DHT22;66763;47.856;17.462;2023-05-07T04:53:46;16.90;48.50
33943;DHT22;66763;47.856;17.462;2023-05-07T04:56:11;16.90;48.50
33943;DHT22;66763;47.856;17.462;2023-05-07T04:58:37;16.90;48.50
33943;DHT22;66763;47.856;17.462;2023-05-07T05:01:02;16.90;48.60
33943;DHT22;66763;47.856;17.462;2023-05-07T05:03:28;16.90;48.50
33943;DHT22;66763;47.856;17.462;2023-05-07T05:05:53;16.90;48.50
33943;DHT22;66763;47.856;17.462;2023-05-07T05:08:19;16.90;48.50
33943;DHT22;66763;47.856;17.462;2023-05-07T05:10:44;16.90;48.50
33943;DHT22;66763;47.856;17.462;2023-05-07T05:13:10;16.90;48.50
33943;DHT22;66763;47.856;17.462;2023-05-07T05:15:38;16.90;48.50
33943;DHT22;66763;47.856;17.462;2023-05-07T05:18:03;16.90;48.50
33943;DHT22;66763;47.856;17.462;2023-05-07T05:20:29;16.90;48.50
33943;DHT22;66763;47.856;17.462;2023-05-07T05:22:54;16.90;48.50
33943;DHT22;66763;47.856;17.462;2023-05-07T05:25:20;16.90;48.60
33943;DHT22;66763;47.856;17.462;2023-05-07T05:27:45;16.90;48.50
33943;DHT22;66763;47.856;17.462;2023-05-07T05:30:11;16.90;48.50
33943;DHT22;66763;47.856;17.462;2023-05-07T05:32:37;16.90;48.50
33943;DHT22;66763;47.856;17.462;2023-05-07T05:35:02;16.90;48.50
33943;DHT22;66763;47.856;17.462;2023-05-07T05:37:28;16.90;48.50
33943;DHT22;66763;47.856;17.462;2023-05-07T05:39:55;16.90;48.40
33943;DHT22;66763;47.856;17.462;2023-05-07T05:42:21;16.90;48.40
33943;DHT22;66763;47.856;17.462;2023-05-07T05:44:46;16.90;48.40
33943;DHT22;66763;47.856;17.462;2023-05-07T05:47:12;16.90;48.40
33943;DHT22;66763;47.856;17.462;2023-05-07T05:49:37;16.90;48.40
33943;DHT22;66763;47.856;17.462;2023-05-07T05:52:03;16.90;48.40
33943;DHT22;66763;47.856;17.462;2023-05-07T05:54:28;17.00;48.40
33943;DHT22;66763;47.856;17.462;2023-05-07T05:56:54;16.90;48.40
33943;DHT22;66763;47.856;17.462;2023-05-07T05:59:19;17.00;48.40
33943;DHT22;66763;47.856;17.462;2023-05-07T06:01:45;16.90;48.40
33943;DHT22;66763;47.856;17.462;2023-05-07T06:04:10;16.90;48.40
33943;DHT22;66763;47.856;17.462;2023-05-07T06:06:36;16.90;48.40
33943;DHT22;66763;47.856;17.462;2023-05-07T06:09:01;17.00;48.40
33943;DHT22;66763;47.856;17.462;2023-05-07T06:11:26;16.90;48.40
33943;DHT22;66763;47.856;17.462;2023-05-07T06:13:52;16.90;48.40
33943;DHT22;66763;47.856;17.462;2023-05-07T06:16:17;17.00;48.40
33943;DHT22;66763;47.856;17.462;2023-05-07T06:18:43;17.00;48.40
33943;DHT22;66763;47.856;17.462;2023-05-07T06:21:10;16.90;48.30
33943;DHT22;66763;47.856;17.462;2023-05-07T06:23:35;16.90;48.30
33943;DHT22;66763;47.856;17.462;2023-05-07T06:26:01;16.90;48.40
33943;DHT22;66763;47.856;17.462;2023-05-07T06:28:26;17.00;48.40
33943;DHT22;66763;47.856;17.462;2023-05-07T06:30:52;16.90;48.30
33943;DHT22;66763;47.856;17.462;2023-05-07T06:33:18;16.90;48.30
33943;DHT22;66763;47.856;17.462;2023-05-07T06:35:44;16.90;48.30
33943;DHT22;66763;47.856;17.462;2023-05-07T06:38:10;16.90;48.30
33943;DHT22;66763;47.856;17.462;2023-05-07T06:40:37;16.90;48.30
33943;DHT22;66763;47.856;17.462;2023-05-07T06:43:02;16.90;48.40
33943;DHT22;66763;47.856;17.462;2023-05-07T06:45:28;16.90;48.40
33943;DHT22;66763;47.856;17.462;2023-05-07T06:47:53;16.90;48.40
33943;DHT22;66763;47.856;17.462;2023-05-07T06:50:19;16.90;48.40
33943;DHT22;66763;47.856;17.462;2023-05-07T06:52:44;16.90;48.40
33943;DHT22;66763;47.856;17.462;2023-05-07T06:55:10;16.90;48.40
33943;DHT22;66763;47.856;17.462;2023-05-07T06:57:36;16.90;48.40
33943;DHT22;66763;47.856;17.462;2023-05-07T07:00:02;16.90;48.50
33943;DHT22;66763;47.856;17.462;2023-05-07T07:02:27;16.90;48.50
33943;DHT22;66763;47.856;17.462;2023-05-07T07:04:53;16.90;48.50
33943;DHT22;66763;47.856;17.462;2023-05-07T07:07:18;16.90;48.50
33943;DHT22;66763;47.856;17.462;2023-05-07T07:09:44;16.90;48.50
33943;DHT22;66763;47.856;17.462;2023-05-07T07:12:09;16.90;48.60
33943;DHT22;66763;47.856;17.462;2023-05-07T07:14:35;16.90;48.50
33943;DHT22;66763;47.856;17.462;2023-05-07T07:17:00;16.90;48.50
33943;DHT22;66763;47.856;17.462;2023-05-07T07:19:26;16.90;49.10
33943;DHT22;66763;47.856;17.462;2023-05-07T07:21:51;16.90;48.50
33943;DHT22;66763;47.856;17.462;2023-05-07T07:24:17;16.90;48.50
33943;DHT22;66763;47.856;17.462;2023-05-07T07:26:46;16.90;48.50
33943;DHT22;66763;47.856;17.462;2023-05-07T07:29:11;16.90;48.50
33943;DHT22;66763;47.856;17.462;2023-05-07T07:31:37;16.90;48.50
33943;DHT22;66763;47.856;17.462;2023-05-07T07:34:02;16.90;48.50
33943;DHT22;66763;47.856;17.462;2023-05-07T07:36:28;16.90;48.50
33943;DHT22;66763;47.856;17.462;2023-05-07T07:38:54;16.90;48.50
33943;DHT22;66763;47.856;17.462;2023-05-07T07:41:19;16.90;48.50
33943;DHT22;66763;47.856;17.462;2023-05-07T07:43:45;16.90;48.50
33943;DHT22;66763;47.856;17.462;2023-05-07T07:46:12;16.90;48.50
33943;DHT22;66763;47.856;17.462;2023-05-07T07:48:37;16.90;48.50
33943;DHT22;66763;47.856;17.462;2023-05-07T07:51:03;16.90;49.10
33943;DHT22;66763;47.856;17.462;2023-05-07T07:53:28;16.90;48.50
33943;DHT22;66763;47.856;17.462;2023-05-07T07:55:54;16.90;48.50
33943;DHT22;66763;47.856;17.462;2023-05-07T07:58:19;16.90;48.50
33943;DHT22;66763;47.856;17.462;2023-05-07T08:00:44;16.90;48.50
33943;DHT22;66763;47.856;17.462;2023-05-07T08:03:10;16.90;48.40
33943;DHT22;66763;47.856;17.462;2023-05-07T08:05:36;16.90;48.40
33943;DHT22;66763;47.856;17.462;2023-05-07T08:08:01;17.00;48.50
33943;DHT22;66763;47.856;17.462;2023-05-07T08:10:27;16.90;48.40
33943;DHT22;66763;47.856;17.462;2023-05-07T08:12:52;16.90;48.30
33943;DHT22;66763;47.856;17.462;2023-05-07T08:15:18;16.90;48.30
33943;DHT22;66763;47.856;17.462;2023-05-07T08:17:43;17.00;48.40
33943;DHT22;66763;47.856;17.462;2023-05-07T08:20:09;17.00;48.40
33943;DHT22;66763;47.856;17.462;2023-05-07T08:22:35;17.00;48.40
33943;DHT22;66763;47.856;17.462;2023-05-07T08:25:01;17.00;48.30
33943;DHT22;66763;47.856;17.462;2023-05-07T08:27:26;17.00;48.40
33943;DHT22;66763;47.856;17.462;2023-05-07T08:29:52;17.00;48.30
33943;DHT22;66763;47.856;17.462;2023-05-07T08:32:18;17.00;48.30
33943;DHT22;66763;47.856;17.462;2023-05-07T08:34:43;17.00;48.30
33943;DHT22;66763;47.856;17.462;2023-05-07T08:37:09;16.90;48.30
33943;DHT22;66763;47.856;17.462;2023-05-07T08:39:34;17.00;48.30
33943;DHT22;66763;47.856;17.462;2023-05-07T08:42:00;17.00;48.30
33943;DHT22;66763;47.856;17.462;2023-05-07T08:44:27;17.00;48.40
33943;DHT22;66763;47.856;17.462;2023-05-07T08:46:53;17.00;48.30
33943;DHT22;66763;47.856;17.462;2023-05-07T08:49:21;17.00;48.30
33943;DHT22;66763;47.856;17.462;2023-05-07T08:51:46;17.00;48.30
33943;DHT22;66763;47.856;17.462;2023-05-07T08:54:12;17.00;48.30
33943;DHT22;66763;47.856;17.462;2023-05-07T08:56:41;17.00;48.30
33943;DHT22;66763;47.856;17.462;2023-05-07T08:59:06;17.00;48.30
33943;DHT22;66763;47.856;17.462;2023-05-07T09:01:32;17.00;48.30
33943;DHT22;66763;47.856;17.462;2023-05-07T09:03:57;17.00;48.30
33943;DHT22;66763;47.856;17.462;2023-05-07T09:06:23;17.00;48.30
33943;DHT22;66763;47.856;17.462;2023-05-07T09:08:54;17.00;48.30
33943;DHT22;66763;47.856;17.462;2023-05-07T09:11:24;17.00;48.30
33943;DHT22;66763;47.856;17.462;2023-05-07T09:13:56;17.00;48.30
33943;DHT22;66763;47.856;17.462;2023-05-07T09:16:23;17.00;48.30
33943;DHT22;66763;47.856;17.462;2023-05-07T09:18:52;17.00;48.30
33943;DHT22;66763;47.856;17.462;2023-05-07T09:21:18;17.00;48.30
33943;DHT22;66763;47.856;17.462;2023-05-07T09:23:44;17.00;48.30
33943;DHT22;66763;47.856;17.462;2023-05-07T09:26:09;17.00;48.30
33943;DHT22;66763;47.856;17.462;2023-05-07T09:28:40;17.00;48.30
33943;DHT22;66763;47.856;17.462;2023-05-07T09:31:07;17.00;48.30
33943;DHT22;66763;47.856;17.462;2023-05-07T09:33:32;17.00;48.30
33943;DHT22;66763;47.856;17.462;2023-05-07T09:35:57;17.00;48.30
33943;DHT22;66763;47.856;17.462;2023-05-07T09:38:23;17.00;48.30
33943;DHT22;66763;47.856;17.462;2023-05-07T09:40:57;17.00;48.30
33943;DHT22;66763;47.856;17.462;2023-05-07T09:43:26;17.00;48.30
33943;DHT22;66763;47.856;17.462;2023-05-07T09:45:51;17.00;48.20
33943;DHT22;66763;47.856;17.462;2023-05-07T09:48:17;17.00;48.20
33943;DHT22;66763;47.856;17.462;2023-05-07T09:50:49;17.00;48.20
33943;DHT22;66763;47.856;17.462;2023-05-07T09:53:17;17.00;48.20
33943;DHT22;66763;47.856;17.462;2023-05-07T09:55:42;17.00;48.20
33943;DHT22;66763;47.856;17.462;2023-05-07T09:58:08;17.00;48.20
33943;DHT22;66763;47.856;17.462;2023-05-07T10:00:34;17.00;48.20
33943;DHT22;66763;47.856;17.462;2023-05-07T10:03:00;17.00;48.20
33943;DHT22;66763;47.856;17.462;2023-05-07T10:05:26;17.00;48.20
33943;DHT22;66763;47.856;17.462;2023-05-07T10:07:52;17.00;48.30
33943;DHT22;66763;47.856;17.462;2023-05-07T10:10:18;17.00;48.20
33943;DHT22;66763;47.856;17.462;2023-05-07T10:12:43;17.00;48.20
33943;DHT22;66763;47.856;17.462;2023-05-07T10:15:10;17.00;48.20
33943;DHT22;66763;47.856;17.462;2023-05-07T10:17:36;17.00;48.20
33943;DHT22;66763;47.856;17.462;2023-05-07T10:20:02;17.00;48.20
33943;DHT22;66763;47.856;17.462;2023-05-07T10:22:30;17.00;48.20
33943;DHT22;66763;47.856;17.462;2023-05-07T10:24:58;17.00;48.20
33943;DHT22;66763;47.856;17.462;2023-05-07T10:27:24;17.00;48.30
33943;DHT22;66763;47.856;17.462;2023-05-07T10:32:38;17.00;48.20
33943;DHT22;66763;47.856;17.462;2023-05-07T10:35:06;17.00;48.20
33943;DHT22;66763;47.856;17.462;2023-05-07T10:37:34;17.00;48.20
33943;DHT22;66763;47.856;17.462;2023-05-07T10:40:00;17.00;48.30
33943;DHT22;66763;47.856;17.462;2023-05-07T10:42:26;17.00;48.30
33943;DHT22;66763;47.856;17.462;2023-05-07T10:44:51;17.00;48.30
33943;DHT22;66763;47.856;17.462;2023-05-07T10:47:17;17.00;48.30
33943;DHT22;66763;47.856;17.462;2023-05-07T10:52:13;17.00;48.20
33943;DHT22;66763;47.856;17.462;2023-05-07T10:54:39;17.00;48.20
33943;DHT22;66763;47.856;17.462;2023-05-07T10:59:49;17.00;48.20
33943;DHT22;66763;47.856;17.462;2023-05-07T11:02:15;17.00;48.20
33943;DHT22;66763;47.856;17.462;2023-05-07T11:04:41;17.00;48.20
33943;DHT22;66763;47.856;17.462;2023-05-07T11:13:02;17.00;48.20
33943;DHT22;66763;47.856;17.462;2023-05-07T11:17:28;17.00;48.80
33943;DHT22;66763;47.856;17.462;2023-05-07T11:19:57;17.10;49.70
33943;DHT22;66763;47.856;17.462;2023-05-07T11:24:58;17.10;51.30
33943;DHT22;66763;47.856;17.462;2023-05-07T11:27:25;17.10;51.70
33943;DHT22;66763;47.856;17.462;2023-05-07T11:29:51;17.10;52.40
33943;DHT22;66763;47.856;17.462;2023-05-07T11:32:22;17.20;52.50
33943;DHT22;66763;47.856;17.462;2023-05-07T11:34:50;17.20;52.70
33943;DHT22;66763;47.856;17.462;2023-05-07T11:37:17;17.30;53.00
33943;DHT22;66763;47.856;17.462;2023-05-07T11:39:42;17.30;53.50
33943;DHT22;66763;47.856;17.462;2023-05-07T11:42:21;17.30;53.80
33943;DHT22;66763;47.856;17.462;2023-05-07T11:44:50;17.30;54.10
33943;DHT22;66763;47.856;17.462;2023-05-07T11:47:19;17.30;54.50
33943;DHT22;66763;47.856;17.462;2023-05-07T11:49:51;17.30;55.20
33943;DHT22;66763;47.856;17.462;2023-05-07T11:52:18;17.40;56.20
33943;DHT22;66763;47.856;17.462;2023-05-07T11:57:15;17.50;57.70
33943;DHT22;66763;47.856;17.462;2023-05-07T11:59:40;17.50;58.20
33943;DHT22;66763;47.856;17.462;2023-05-07T12:02:06;17.60;58.40
33943;DHT22;66763;47.856;17.462;2023-05-07T12:04:32;17.60;58.80
33943;DHT22;66763;47.856;17.462;2023-05-07T12:06:58;17.60;58.80
33943;DHT22;66763;47.856;17.462;2023-05-07T12:09:23;17.70;58.80
33943;DHT22;66763;47.856;17.462;2023-05-07T12:11:49;17.80;59.30
33943;DHT22;66763;47.856;17.462;2023-05-07T12:14:14;17.70;59.60
33943;DHT22;66763;47.856;17.462;2023-05-07T12:16:42;17.70;59.80
33943;DHT22;66763;47.856;17.462;2023-05-07T12:19:08;17.80;59.90
33943;DHT22;66763;47.856;17.462;2023-05-07T12:21:37;17.80;60.00
33943;DHT22;66763;47.856;17.462;2023-05-07T12:24:03;17.80;60.00
33943;DHT22;66763;47.856;17.462;2023-05-07T12:26:29;17.90;60.20
33943;DHT22;66763;47.856;17.462;2023-05-07T12:28:54;17.90;60.40
33943;DHT22;66763;47.856;17.462;2023-05-07T12:31:20;17.90;60.10
33943;DHT22;66763;47.856;17.462;2023-05-07T12:33:45;17.90;59.90
33943;DHT22;66763;47.856;17.462;2023-05-07T12:36:12;17.90;59.70
33943;DHT22;66763;47.856;17.462;2023-05-07T12:38:38;18.00;59.80
33943;DHT22;66763;47.856;17.462;2023-05-07T12:41:04;17.90;60.50
33943;DHT22;66763;47.856;17.462;2023-05-07T12:43:29;18.00;60.60
33943;DHT22;66763;47.856;17.462;2023-05-07T12:45:57;18.00;60.50
33943;DHT22;66763;47.856;17.462;2023-05-07T12:48:23;18.00;60.30
33943;DHT22;66763;47.856;17.462;2023-05-07T12:50:49;18.00;60.10
33943;DHT22;66763;47.856;17.462;2023-05-07T12:53:15;18.00;59.70
33943;DHT22;66763;47.856;17.462;2023-05-07T12:55:44;18.00;59.20
33943;DHT22;66763;47.856;17.462;2023-05-07T12:58:17;18.00;59.20
33943;DHT22;66763;47.856;17.462;2023-05-07T13:00:42;18.00;58.70
33943;DHT22;66763;47.856;17.462;2023-05-07T13:03:08;18.00;58.50
33943;DHT22;66763;47.856;17.462;2023-05-07T13:05:34;18.00;58.20
33943;DHT22;66763;47.856;17.462;2023-05-07T13:08:00;18.00;58.40
33943;DHT22;66763;47.856;17.462;2023-05-07T13:10:26;18.10;58.40
33943;DHT22;66763;47.856;17.462;2023-05-07T13:12:52;18.10;58.40
33943;DHT22;66763;47.856;17.462;2023-05-07T13:15:18;18.10;58.30
33943;DHT22;66763;47.856;17.462;2023-05-07T13:17:43;18.10;58.30
33943;DHT22;66763;47.856;17.462;2023-05-07T13:20:09;18.00;58.30
33943;DHT22;66763;47.856;17.462;2023-05-07T13:22:35;18.10;58.50
33943;DHT22;66763;47.856;17.462;2023-05-07T13:25:01;18.10;58.70
33943;DHT22;66763;47.856;17.462;2023-05-07T13:27:26;18.10;58.50
33943;DHT22;66763;47.856;17.462;2023-05-07T13:29:52;18.10;58.20
33943;DHT22;66763;47.856;17.462;2023-05-07T13:32:17;18.10;58.20
33943;DHT22;66763;47.856;17.462;2023-05-07T13:34:43;18.10;58.00
33943;DHT22;66763;47.856;17.462;2023-05-07T13:37:08;18.10;57.90
33943;DHT22;66763;47.856;17.462;2023-05-07T13:39:33;18.10;57.70
33943;DHT22;66763;47.856;17.462;2023-05-07T13:41:59;18.10;57.50
33943;DHT22;66763;47.856;17.462;2023-05-07T13:44:26;18.10;57.10
33943;DHT22;66763;47.856;17.462;2023-05-07T13:46:51;18.10;57.10
33943;DHT22;66763;47.856;17.462;2023-05-07T13:49:17;18.10;56.90
33943;DHT22;66763;47.856;17.462;2023-05-07T13:51:42;18.00;56.70
33943;DHT22;66763;47.856;17.462;2023-05-07T13:54:08;18.00;56.50
33943;DHT22;66763;47.856;17.462;2023-05-07T13:56:33;18.00;56.40
33943;DHT22;66763;47.856;17.462;2023-05-07T13:58:59;18.00;56.40
33943;DHT22;66763;47.856;17.462;2023-05-07T14:01:24;18.00;56.30
33943;DHT22;66763;47.856;17.462;2023-05-07T14:03:50;17.90;56.10
33943;DHT22;66763;47.856;17.462;2023-05-07T14:06:15;18.00;56.00
33943;DHT22;66763;47.856;17.462;2023-05-07T14:08:41;18.00;55.90
33943;DHT22;66763;47.856;17.462;2023-05-07T14:11:06;18.00;55.80
33943;DHT22;66763;47.856;17.462;2023-05-07T14:13:32;17.90;55.80
33943;DHT22;66763;47.856;17.462;2023-05-07T14:15:57;17.90;55.70
33943;DHT22;66763;47.856;17.462;2023-05-07T14:18:23;17.90;55.60
33943;DHT22;66763;47.856;17.462;2023-05-07T14:20:48;17.90;55.60
33943;DHT22;66763;47.856;17.462;2023-05-07T14:23:14;17.90;55.60
33943;DHT22;66763;47.856;17.462;2023-05-07T14:25:40;17.90;55.40
33943;DHT22;66763;47.856;17.462;2023-05-07T14:28:06;17.90;55.50
33943;DHT22;66763;47.856;17.462;2023-05-07T14:30:31;17.90;55.30
33943;DHT22;66763;47.856;17.462;2023-05-07T14:32:57;17.90;55.20
33943;DHT22;66763;47.856;17.462;2023-05-07T14:35:22;17.80;55.20
33943;DHT22;66763;47.856;17.462;2023-05-07T14:37:48;17.80;55.20
33943;DHT22;66763;47.856;17.462;2023-05-07T14:40:13;17.80;55.20
33943;DHT22;66763;47.856;17.462;2023-05-07T14:42:40;17.80;55.10
33943;DHT22;66763;47.856;17.462;2023-05-07T14:45:05;17.80;55.00
33943;DHT22;66763;47.856;17.462;2023-05-07T14:47:31;17.80;54.90
33943;DHT22;66763;47.856;17.462;2023-05-07T14:49:56;17.80;55.00
33943;DHT22;66763;47.856;17.462;2023-05-07T14:52:23;17.80;54.90
33943;DHT22;66763;47.856;17.462;2023-05-07T14:54:49;17.80;54.80
33943;DHT22;66763;47.856;17.462;2023-05-07T14:57:14;17.80;54.80
33943;DHT22;66763;47.856;17.462;2023-05-07T14:59:41;17.80;54.80
33943;DHT22;66763;47.856;17.462;2023-05-07T15:02:07;17.80;54.70
33943;DHT22;66763;47.856;17.462;2023-05-07T15:04:33;17.80;54.70
33943;DHT22;66763;47.856;17.462;2023-05-07T15:06:59;17.80;54.50
33943;DHT22;66763;47.856;17.462;2023-05-07T15:09:24;17.80;54.50
33943;DHT22;66763;47.856;17.462;2023-05-07T15:11:50;17.80;54.60
33943;DHT22;66763;47.856;17.462;2023-05-07T15:14:15;17.80;54.50
33943;DHT22;66763;47.856;17.462;2023-05-07T15:16:41;17.70;54.50
33943;DHT22;66763;47.856;17.462;2023-05-07T15:19:06;17.70;54.50
33943;DHT22;66763;47.856;17.462;2023-05-07T15:21:32;17.70;54.40
33943;DHT22;66763;47.856;17.462;2023-05-07T15:24:00;17.80;54.40
33943;DHT22;66763;47.856;17.462;2023-05-07T15:26:26;17.80;54.40
33943;DHT22;66763;47.856;17.462;2023-05-07T15:28:51;17.80;54.40